createdAt,value
2023-04-17T00:00:19.967Z,1.25
2023-04-17T00:02:47.204Z,1.42
2023-04-17T00:05:13.925Z,1.55
2023-04-17T00:07:41.271Z,1.30
2023-04-17T00:10:08.902Z,1.60
2023-04-17T00:12:35.796Z,1.60
2023-04-17T00:15:02.655Z,1.25
2023-04-17T00:17:29.307Z,1.17
2023-04-17T00:19:56.050Z,1.30
2023-04-17T00:22:22.785Z,1.60
2023-04-17T00:24:49.494Z,1.20
2023-04-17T00:27:16.209Z,1.38
2023-04-17T00:29:42.909Z,1.30
2023-04-17T00:32:09.592Z,1.25
2023-04-17T00:34:36.397Z,1.20
2023-04-17T00:37:03.030Z,1.00
2023-04-17T00:39:29.639Z,1.20
2023-04-17T00:41:57.407Z,1.15
2023-04-17T00:44:24.570Z,1.00
2023-04-17T00:46:51.527Z,1.15
2023-04-17T00:49:18.182Z,1.08
2023-04-17T00:51:45.025Z,1.35
2023-04-17T00:54:11.765Z,1.40
2023-04-17T00:56:38.475Z,1.15
2023-04-17T00:59:05.243Z,1.40
2023-04-17T01:01:31.983Z,1.20
2023-04-17T01:03:59.945Z,0.90
2023-04-17T01:06:27.019Z,1.45
2023-04-17T01:08:53.721Z,1.45
2023-04-17T01:11:20.389Z,0.95
2023-04-17T01:13:47.966Z,1.85
2023-04-17T01:16:14.969Z,1.30
2023-04-17T01:18:41.766Z,1.58
2023-04-17T01:21:08.441Z,1.45
2023-04-17T01:23:52.665Z,1.65
2023-04-17T01:26:23.469Z,1.92
2023-04-17T01:28:53.137Z,2.08
2023-04-17T01:31:20.157Z,2.00
2023-04-17T01:33:47.208Z,2.00
2023-04-17T01:36:14.002Z,1.90
2023-04-17T01:38:40.743Z,1.77
2023-04-17T01:41:10.802Z,2.20
2023-04-17T01:43:40.218Z,2.60
2023-04-17T01:46:07.126Z,2.60
2023-04-17T01:48:34.206Z,2.40
2023-04-17T01:51:01.020Z,2.50
2023-04-17T01:53:29.466Z,2.20
2023-04-17T01:55:56.144Z,3.80
2023-04-17T01:58:22.773Z,3.30
2023-04-17T02:00:49.779Z,2.42
2023-04-17T02:03:16.892Z,3.28
2023-04-17T02:05:47.357Z,4.20
2023-04-17T02:08:14.686Z,3.30
2023-04-17T02:10:41.950Z,4.43
2023-04-17T02:13:09.135Z,3.80
2023-04-17T02:15:36.694Z,4.25
2023-04-17T02:18:06.057Z,4.13
2023-04-17T02:20:33.568Z,4.40
2023-04-17T02:23:00.655Z,3.92
2023-04-17T02:25:27.844Z,4.13
2023-04-17T02:27:54.963Z,4.30
2023-04-17T02:30:22.274Z,5.18
2023-04-17T02:32:51.856Z,5.57
2023-04-17T02:35:19.758Z,6.32
2023-04-17T02:37:46.660Z,5.90
2023-04-17T02:40:13.974Z,6.50
2023-04-17T02:42:40.692Z,5.03
2023-04-17T02:45:08.252Z,5.25
2023-04-17T02:47:34.994Z,5.70
2023-04-17T02:50:01.647Z,7.03
2023-04-17T02:52:28.832Z,6.63
2023-04-17T02:54:56.612Z,5.15
2023-04-17T02:57:23.810Z,6.55
2023-04-17T02:59:51.075Z,6.50
2023-04-17T03:02:21.775Z,6.18
2023-04-17T03:04:49.187Z,6.88
2023-04-17T03:07:19.565Z,7.30
2023-04-17T03:09:47.026Z,7.25
2023-04-17T03:12:15.211Z,7.07
2023-04-17T03:14:42.036Z,7.10
2023-04-17T03:17:09.557Z,8.05
2023-04-17T03:19:38.300Z,6.93
2023-04-17T03:22:05.457Z,6.03
2023-04-17T03:24:32.257Z,7.20
2023-04-17T03:26:59.617Z,8.60
2023-04-17T03:29:26.368Z,9.50
2023-04-17T03:31:53.140Z,7.43
2023-04-17T03:34:21.525Z,8.00
2023-04-17T03:36:48.444Z,8.55
2023-04-17T03:39:15.100Z,9.98
2023-04-17T03:41:41.975Z,9.50
2023-04-17T03:44:09.929Z,9.70
2023-04-17T03:46:38.153Z,9.60
2023-04-17T03:49:05.147Z,8.45
2023-04-17T03:51:32.011Z,9.43
2023-04-17T03:53:58.644Z,10.43
2023-04-17T03:56:25.845Z,9.60
2023-04-17T03:58:52.538Z,8.65
2023-04-17T04:01:19.341Z,10.43
2023-04-17T04:03:46.186Z,8.60
2023-04-17T04:06:13.207Z,7.75
2023-04-17T04:08:40.421Z,10.25
2023-04-17T04:11:07.177Z,11.55
2023-04-17T04:13:34.240Z,10.57
2023-04-17T04:16:01.148Z,12.20
2023-04-17T04:18:27.955Z,10.95
2023-04-17T04:20:54.717Z,12.00
2023-04-17T04:23:21.556Z,11.88
2023-04-17T04:25:49.664Z,12.90
2023-04-17T04:28:17.704Z,13.15
2023-04-17T04:30:50.369Z,14.02
2023-04-17T04:33:20.169Z,11.88
2023-04-17T04:35:47.728Z,14.63
2023-04-17T04:38:15.377Z,14.93
2023-04-17T04:40:43.837Z,14.63
2023-04-17T04:43:10.874Z,14.85
2023-04-17T04:45:37.753Z,15.05
2023-04-17T04:48:04.537Z,13.88
2023-04-17T04:50:31.479Z,13.57
2023-04-17T04:52:58.154Z,15.77
2023-04-17T04:55:26.473Z,13.35
2023-04-17T04:57:54.319Z,13.23
2023-04-17T05:00:21.194Z,12.90
2023-04-17T05:02:48.044Z,13.38
2023-04-17T05:05:14.838Z,15.35
2023-04-17T05:07:41.506Z,13.93
2023-04-17T05:10:08.726Z,14.15
2023-04-17T05:12:35.439Z,14.20
2023-04-17T05:15:02.224Z,14.00
2023-04-17T05:17:28.865Z,13.10
2023-04-17T05:19:55.543Z,12.23
2023-04-17T05:22:22.142Z,13.20
2023-04-17T05:24:48.773Z,12.43
2023-04-17T05:27:15.468Z,13.68
2023-04-17T05:29:42.109Z,14.35
2023-04-17T05:32:08.812Z,14.35
2023-04-17T05:34:35.869Z,13.45
2023-04-17T05:37:03.276Z,13.75
2023-04-17T05:39:30.020Z,14.13
2023-04-17T05:41:56.611Z,12.27
2023-04-17T05:44:23.326Z,16.50
2023-04-17T05:46:50.004Z,14.77
2023-04-17T05:49:16.881Z,15.02
2023-04-17T05:51:43.521Z,13.57
2023-04-17T05:54:10.193Z,16.05
2023-04-17T05:56:37.090Z,12.68
2023-04-17T05:59:03.738Z,12.63
2023-04-17T06:01:30.914Z,14.35
2023-04-17T06:03:57.830Z,12.02
2023-04-17T06:06:24.772Z,12.05
2023-04-17T06:08:52.519Z,11.52
2023-04-17T06:11:19.157Z,11.85
2023-04-17T06:13:45.983Z,12.13
2023-04-17T06:16:16.211Z,6.28
2023-04-17T06:18:43.030Z,7.93
2023-04-17T06:21:09.871Z,7.05
2023-04-17T06:23:36.532Z,7.13
2023-04-17T06:26:03.137Z,6.93
2023-04-17T06:28:29.964Z,6.45
2023-04-17T06:30:57.112Z,6.47
2023-04-17T06:33:25.358Z,8.48
2023-04-17T06:35:53.545Z,7.82
2023-04-17T06:38:20.141Z,7.22
2023-04-17T06:40:47.598Z,7.75
2023-04-17T06:43:16.664Z,8.75
2023-04-17T06:45:43.571Z,8.20
2023-04-17T06:48:10.318Z,8.35
2023-04-17T06:50:37.397Z,7.25
2023-04-17T06:53:04.061Z,8.00
2023-04-17T06:55:30.723Z,8.02
2023-04-17T06:58:10.171Z,8.07
2023-04-17T07:00:37.136Z,7.50
2023-04-17T07:03:04.723Z,8.55
2023-04-17T07:05:31.651Z,7.50
2023-04-17T07:07:58.500Z,7.78
2023-04-17T07:10:25.872Z,8.25
2023-04-17T07:12:52.791Z,8.10
2023-04-17T07:15:19.591Z,8.75
2023-04-17T07:17:46.422Z,8.70
2023-04-17T07:20:13.235Z,8.68
2023-04-17T07:22:40.114Z,8.20
2023-04-17T07:25:07.529Z,8.20
2023-04-17T07:27:34.353Z,9.48
2023-04-17T07:30:01.218Z,10.13
2023-04-17T07:32:28.568Z,9.23
2023-04-17T07:34:55.655Z,7.70
2023-04-17T07:37:22.413Z,8.60
2023-04-17T07:39:50.282Z,8.23
2023-04-17T07:42:28.489Z,9.88
2023-04-17T07:44:55.770Z,7.97
2023-04-17T07:47:23.816Z,9.85
2023-04-17T07:49:51.297Z,8.80
2023-04-17T07:52:18.316Z,10.70
2023-04-17T07:54:45.345Z,10.35
2023-04-17T07:57:12.076Z,9.75
2023-04-17T07:59:38.864Z,8.55
2023-04-17T08:02:05.865Z,9.55
2023-04-17T08:04:57.256Z,8.52
2023-04-17T08:07:33.018Z,10.65
2023-04-17T08:09:59.615Z,10.32
2023-04-17T08:12:26.737Z,10.23
2023-04-17T08:14:53.403Z,11.27
2023-04-17T08:17:22.892Z,10.45
2023-04-17T08:19:53.378Z,10.00
2023-04-17T08:22:23.983Z,11.30
2023-04-17T08:24:54.897Z,11.38
2023-04-17T08:27:21.660Z,9.90
2023-04-17T08:29:48.418Z,10.05
2023-04-17T08:32:15.689Z,9.95
2023-04-17T08:34:43.773Z,10.48
2023-04-17T08:37:10.685Z,10.57
2023-04-17T08:39:40.865Z,10.20
2023-04-17T08:42:09.954Z,11.27
2023-04-17T08:44:38.287Z,11.55
2023-04-17T08:47:05.555Z,11.27
2023-04-17T08:49:34.977Z,10.77
2023-04-17T08:52:04.580Z,11.75
2023-04-17T08:54:35.032Z,12.18
2023-04-17T08:57:03.585Z,11.60
2023-04-17T08:59:31.022Z,10.45
2023-04-17T09:02:02.574Z,12.27
2023-04-17T09:04:50.610Z,11.05
2023-04-17T09:07:20.152Z,12.18
2023-04-17T09:09:50.225Z,11.05
2023-04-17T09:12:17.715Z,13.50
2023-04-17T09:14:44.609Z,11.68
2023-04-17T09:17:11.439Z,12.05
2023-04-17T09:19:38.597Z,12.55
2023-04-17T09:22:21.733Z,13.98
2023-04-17T09:24:48.692Z,14.55
2023-04-17T09:27:30.522Z,16.25
2023-04-17T09:30:03.119Z,16.55
2023-04-17T09:34:58.621Z,16.23
2023-04-17T09:37:25.728Z,13.95
2023-04-17T09:39:57.674Z,14.43
2023-04-17T09:42:24.410Z,14.00
2023-04-17T09:44:51.225Z,15.85
2023-04-17T09:47:18.815Z,15.27
2023-04-17T09:49:49.573Z,16.48
2023-04-17T09:52:17.536Z,16.45
2023-04-17T09:54:44.327Z,15.55
2023-04-17T09:57:11.163Z,14.68
2023-04-17T09:59:41.155Z,14.05
2023-04-17T10:02:09.350Z,14.88
2023-04-17T10:04:36.389Z,15.15
2023-04-17T10:07:04.445Z,14.45
2023-04-17T10:09:32.171Z,14.43
2023-04-17T10:11:58.850Z,17.27
2023-04-17T10:14:28.235Z,14.73
2023-04-17T10:16:54.919Z,12.98
2023-04-17T10:19:36.669Z,13.43
2023-04-17T10:22:24.800Z,12.65
2023-04-17T10:24:52.528Z,13.88
2023-04-17T10:30:05.545Z,11.60
2023-04-17T10:32:34.069Z,12.90
2023-04-17T10:38:03.561Z,12.20
2023-04-17T10:40:30.949Z,12.77
2023-04-17T10:43:17.959Z,13.55
2023-04-17T10:46:05.725Z,12.90
2023-04-17T10:48:39.071Z,12.98
2023-04-17T10:54:10.116Z,13.15
2023-04-17T10:56:38.756Z,12.90
2023-04-17T10:59:07.729Z,12.27
2023-04-17T11:04:23.008Z,13.30
2023-04-17T11:06:49.854Z,13.95
2023-04-17T11:09:16.847Z,14.20
2023-04-17T11:11:44.918Z,13.75
2023-04-17T11:14:15.560Z,15.27
2023-04-17T11:16:43.441Z,12.82
2023-04-17T11:19:11.446Z,17.02
2023-04-17T11:21:40.410Z,13.30
2023-04-17T11:24:07.158Z,12.55
2023-04-17T11:26:43.452Z,12.57
2023-04-17T11:29:17.842Z,15.00
2023-04-17T11:31:45.789Z,12.38
2023-04-17T11:34:13.570Z,14.15
2023-04-17T11:36:40.330Z,12.80
2023-04-17T11:39:08.318Z,12.52
2023-04-17T11:41:37.687Z,14.43
2023-04-17T11:44:04.523Z,13.57
2023-04-17T11:46:31.254Z,13.60
2023-04-17T11:48:58.058Z,15.18
2023-04-17T11:51:24.697Z,13.65
2023-04-17T11:53:52.182Z,12.57
2023-04-17T11:56:19.585Z,12.68
2023-04-17T11:58:53.343Z,16.73
2023-04-17T12:01:21.770Z,15.23
2023-04-17T12:03:48.815Z,13.80
2023-04-17T12:06:15.807Z,14.77
2023-04-17T12:08:47.085Z,14.52
2023-04-17T12:11:20.043Z,13.90
2023-04-17T12:13:46.830Z,12.43
2023-04-17T12:16:13.701Z,13.85
2023-04-17T12:18:40.478Z,11.43
2023-04-17T12:21:07.170Z,12.70
2023-04-17T12:23:33.910Z,12.50
2023-04-17T12:26:01.415Z,14.20
2023-04-17T12:28:28.193Z,14.13
2023-04-17T12:30:58.169Z,14.93
2023-04-17T12:33:24.881Z,12.98
2023-04-17T12:35:57.301Z,13.95
2023-04-17T12:38:24.152Z,11.02
2023-04-17T12:40:51.354Z,12.18
2023-04-17T12:43:18.305Z,11.93
2023-04-17T12:45:46.117Z,11.15
2023-04-17T12:48:13.506Z,13.18
2023-04-17T12:50:42.631Z,11.75
2023-04-17T12:53:10.892Z,10.70
2023-04-17T12:55:39.395Z,12.35
2023-04-17T12:58:06.524Z,10.68
2023-04-17T13:00:33.573Z,11.85
2023-04-17T13:03:00.782Z,10.77
2023-04-17T13:05:28.334Z,16.10
2023-04-17T13:07:55.626Z,8.40
2023-04-17T13:10:22.286Z,8.40
2023-04-17T13:12:48.947Z,8.18
2023-04-17T13:15:15.597Z,8.55
2023-04-17T13:17:42.689Z,8.85
2023-04-17T13:20:09.890Z,9.38
2023-04-17T13:22:36.550Z,7.78
2023-04-17T13:25:04.070Z,9.75
2023-04-17T13:27:30.964Z,11.05
2023-04-17T13:29:57.591Z,8.80
2023-04-17T13:32:24.282Z,8.50
2023-04-17T13:34:50.969Z,9.23
2023-04-17T13:37:17.607Z,8.65
2023-04-17T13:39:44.273Z,9.90
2023-04-17T13:42:12.480Z,10.75
2023-04-17T13:44:39.134Z,8.60
2023-04-17T13:47:07.761Z,8.38
2023-04-17T13:49:34.423Z,8.18
2023-04-17T13:52:01.115Z,8.90
2023-04-17T13:54:27.796Z,8.27
2023-04-17T13:56:54.421Z,6.78
2023-04-17T13:59:21.031Z,9.15
2023-04-17T14:01:47.691Z,8.55
2023-04-17T14:04:15.588Z,10.23
2023-04-17T14:06:44.079Z,8.50
2023-04-17T14:09:11.364Z,10.43
2023-04-17T14:11:38.527Z,9.00
2023-04-17T14:14:05.716Z,8.50
2023-04-17T14:16:32.380Z,7.28
2023-04-17T14:19:13.298Z,6.97
2023-04-17T14:21:41.169Z,6.57
2023-04-17T14:24:08.023Z,7.13
2023-04-17T14:26:34.770Z,7.28
2023-04-17T14:29:01.554Z,6.88
2023-04-17T14:31:28.345Z,7.55
2023-04-17T14:33:55.308Z,7.03
2023-04-17T14:36:21.992Z,7.20
2023-04-17T14:38:51.116Z,7.78
2023-04-17T14:41:17.973Z,7.00
2023-04-17T14:43:44.898Z,7.72
2023-04-17T14:46:12.303Z,8.35
2023-04-17T14:48:52.221Z,9.07
2023-04-17T14:51:23.949Z,7.90
2023-04-17T14:53:51.214Z,8.38
2023-04-17T14:56:17.903Z,9.23
2023-04-17T14:58:44.671Z,8.32
2023-04-17T15:01:11.503Z,8.25
2023-04-17T15:03:38.474Z,17.35
2023-04-17T15:06:05.389Z,9.75
2023-04-17T15:08:32.061Z,9.27
2023-04-17T15:10:58.911Z,10.43
2023-04-17T15:13:25.680Z,7.70
2023-04-17T15:15:52.306Z,7.38
2023-04-17T15:18:18.933Z,7.13
2023-04-17T15:20:46.249Z,6.45
2023-04-17T15:23:13.112Z,6.38
2023-04-17T15:25:40.083Z,4.53
2023-04-17T15:28:06.923Z,4.35
2023-04-17T15:30:33.574Z,7.13
2023-04-17T15:33:00.364Z,6.90
2023-04-17T15:35:27.084Z,5.60
2023-04-17T15:37:53.715Z,5.95
2023-04-17T15:40:20.869Z,6.75
2023-04-17T15:42:47.574Z,10.98
2023-04-17T15:45:14.301Z,8.18
2023-04-17T15:47:40.993Z,6.13
2023-04-17T15:50:08.623Z,6.75
2023-04-17T15:52:35.483Z,5.65
2023-04-17T15:55:02.510Z,6.78
2023-04-17T15:57:29.154Z,8.73
2023-04-17T15:59:55.992Z,6.85
2023-04-17T16:02:22.737Z,6.68
2023-04-17T16:04:49.512Z,6.15
2023-04-17T16:07:16.563Z,5.40
2023-04-17T16:09:44.590Z,7.03
2023-04-17T16:12:11.430Z,6.45
2023-04-17T16:14:38.248Z,6.00
2023-04-17T16:17:05.066Z,5.72
2023-04-17T16:19:32.305Z,5.45
2023-04-17T16:21:59.532Z,5.63
2023-04-17T16:24:26.355Z,5.65
2023-04-17T16:26:54.872Z,5.05
2023-04-17T16:29:22.232Z,4.95
2023-04-17T16:31:48.949Z,5.10
2023-04-17T16:34:15.687Z,4.38
2023-04-17T16:36:45.364Z,5.25
2023-04-17T16:39:12.927Z,5.88
2023-04-17T16:41:39.890Z,6.18
2023-04-17T16:44:06.747Z,6.32
2023-04-17T16:46:45.648Z,5.18
2023-04-17T16:49:20.287Z,4.90
2023-04-17T16:51:46.971Z,6.10
2023-04-17T16:54:13.977Z,5.80
2023-04-17T16:56:41.997Z,6.13
2023-04-17T16:59:08.715Z,5.53
2023-04-17T17:01:35.693Z,6.65
2023-04-17T17:04:02.454Z,6.05
2023-04-17T17:06:29.742Z,5.28
2023-04-17T17:08:56.370Z,5.70
2023-04-17T17:11:23.156Z,5.88
2023-04-17T17:13:50.254Z,5.05
2023-04-17T17:16:18.112Z,5.75
2023-04-17T17:18:45.151Z,5.07
2023-04-17T17:21:11.988Z,4.72
2023-04-17T17:23:38.747Z,5.00
2023-04-17T17:26:05.870Z,4.80
2023-04-17T17:28:32.834Z,6.97
2023-04-17T17:33:38.112Z,6.85
2023-04-17T17:36:05.255Z,6.72
2023-04-17T17:38:32.753Z,6.78
2023-04-17T17:40:59.719Z,6.32
2023-04-17T17:43:28.203Z,5.75
2023-04-17T17:45:54.885Z,6.60
2023-04-17T17:48:22.076Z,7.22
2023-04-17T17:50:48.784Z,7.60
2023-04-17T17:53:17.556Z,7.57
2023-04-17T17:55:51.152Z,8.43
2023-04-17T18:00:44.512Z,8.25
2023-04-17T18:03:11.574Z,8.10
2023-04-17T18:05:38.322Z,7.68
2023-04-17T18:08:05.007Z,8.27
2023-04-17T18:10:31.664Z,7.70
2023-04-17T18:12:58.411Z,8.45
2023-04-17T18:15:25.053Z,17.73
2023-04-17T18:17:51.843Z,7.85
2023-04-17T18:20:18.752Z,8.23
2023-04-17T18:22:45.374Z,8.43
2023-04-17T18:25:12.811Z,8.18
2023-04-17T18:27:39.594Z,8.90
2023-04-17T18:30:07.374Z,8.63
2023-04-17T18:32:34.524Z,8.05
2023-04-17T18:35:01.980Z,7.55
2023-04-17T18:37:29.016Z,7.10
2023-04-17T18:39:55.749Z,8.45
2023-04-17T18:42:22.924Z,9.73
2023-04-17T18:44:49.922Z,9.07
2023-04-17T18:47:16.725Z,8.05
2023-04-17T18:49:43.850Z,7.40
2023-04-17T18:52:10.964Z,9.02
2023-04-17T18:54:37.720Z,6.90
2023-04-17T18:57:04.516Z,7.00
2023-04-17T18:59:31.301Z,6.97
2023-04-17T19:01:58.318Z,7.20
2023-04-17T19:04:25.951Z,7.40
2023-04-17T19:06:52.662Z,7.63
2023-04-17T19:09:19.465Z,6.88
2023-04-17T19:11:46.191Z,8.40
2023-04-17T19:14:13.038Z,7.55
2023-04-17T19:16:39.814Z,7.20
2023-04-17T19:19:08.292Z,8.50
2023-04-17T19:21:34.985Z,7.70
2023-04-17T19:24:01.672Z,7.05
2023-04-17T19:26:28.408Z,7.20
2023-04-17T19:28:55.596Z,7.55
2023-04-17T19:31:22.451Z,7.93
2023-04-17T19:33:49.147Z,8.55
2023-04-17T19:36:15.874Z,8.32
2023-04-17T19:38:43.675Z,7.43
2023-04-17T19:41:18.338Z,7.43
2023-04-17T19:43:45.971Z,6.90
2023-04-17T19:46:13.454Z,8.27
2023-04-17T19:48:40.316Z,8.40
2023-04-17T19:51:06.959Z,7.35
2023-04-17T19:53:35.445Z,7.07
2023-04-17T19:56:03.227Z,7.38
2023-04-17T19:58:30.257Z,7.22
2023-04-17T20:00:57.893Z,7.55
2023-04-17T20:03:26.207Z,7.30
2023-04-17T20:05:53.028Z,7.88
2023-04-17T20:08:19.762Z,9.55
2023-04-17T20:10:46.404Z,9.80
2023-04-17T20:13:13.417Z,10.45
2023-04-17T20:15:40.417Z,10.98
2023-04-17T20:18:08.731Z,12.38
2023-04-17T20:20:36.723Z,11.88
2023-04-17T20:23:03.543Z,11.27
2023-04-17T20:25:30.358Z,12.05
2023-04-17T20:27:57.233Z,10.85
2023-04-17T20:30:24.044Z,10.48
2023-04-17T20:32:50.858Z,10.35
2023-04-17T20:35:17.921Z,9.65
2023-04-17T20:37:44.793Z,11.10
2023-04-17T20:40:13.856Z,10.38
2023-04-17T20:42:41.370Z,11.75
2023-04-17T20:45:08.987Z,10.88
2023-04-17T20:47:37.440Z,11.55
2023-04-17T20:50:05.554Z,11.93
2023-04-17T20:52:32.449Z,11.15
2023-04-17T20:55:00.802Z,14.13
2023-04-17T20:57:28.281Z,11.25
2023-04-17T20:59:54.972Z,12.48
2023-04-17T21:02:21.988Z,11.77
2023-04-17T21:04:48.976Z,12.77
2023-04-17T21:07:15.802Z,13.18
2023-04-17T21:09:42.646Z,11.82
2023-04-17T21:12:09.321Z,12.07
2023-04-17T21:14:36.577Z,11.18
2023-04-17T21:17:03.249Z,12.68
2023-04-17T21:19:30.815Z,13.05
2023-04-17T21:21:57.900Z,12.95
2023-04-17T21:24:24.816Z,11.80
2023-04-17T21:26:51.650Z,13.90
2023-04-17T21:29:18.325Z,13.00
2023-04-17T21:31:45.281Z,11.70
2023-04-17T21:34:12.246Z,13.05
2023-04-17T21:36:39.426Z,12.07
2023-04-17T21:39:07.134Z,12.88
2023-04-17T21:41:34.054Z,11.55
2023-04-17T21:44:02.519Z,11.98
2023-04-17T21:46:29.629Z,11.35
2023-04-17T21:48:56.261Z,11.05
2023-04-17T21:51:23.356Z,10.73
2023-04-17T21:53:50.345Z,10.25
2023-04-17T21:56:17.008Z,9.88
2023-04-17T21:58:43.689Z,10.25
2023-04-17T22:01:10.372Z,10.77
2023-04-17T22:03:37.235Z,9.38
2023-04-17T22:06:04.260Z,10.35
2023-04-17T22:08:31.276Z,9.15
2023-04-17T22:10:58.061Z,9.32
2023-04-17T22:13:24.700Z,9.30
2023-04-17T22:15:51.442Z,8.35
2023-04-17T22:18:18.075Z,10.00
2023-04-17T22:20:44.716Z,8.85
2023-04-17T22:23:11.354Z,8.90
2023-04-17T22:25:38.021Z,8.57
2023-04-17T22:28:04.696Z,8.40
2023-04-17T22:30:31.399Z,9.18
2023-04-17T22:32:58.033Z,8.38
2023-04-17T22:35:24.785Z,8.25
2023-04-17T22:37:51.393Z,8.32
2023-04-17T22:40:18.127Z,7.78
2023-04-17T22:42:44.776Z,7.22
2023-04-17T22:45:11.455Z,10.32
2023-04-17T22:47:38.280Z,11.05
2023-04-17T22:50:05.708Z,9.13
2023-04-17T22:52:32.486Z,10.23
2023-04-17T22:54:59.345Z,10.45
2023-04-17T22:57:25.982Z,9.40
2023-04-17T22:59:52.714Z,11.75
2023-04-17T23:02:19.445Z,11.00
2023-04-17T23:04:46.162Z,11.45
2023-04-17T23:07:12.905Z,9.85
2023-04-17T23:09:39.516Z,9.88
2023-04-17T23:12:07.081Z,10.55
2023-04-17T23:14:33.925Z,11.00
2023-04-17T23:17:00.514Z,10.07
2023-04-17T23:19:27.550Z,10.00
2023-04-17T23:21:54.280Z,10.68
2023-04-17T23:24:21.005Z,9.88
2023-04-17T23:26:48.720Z,9.85
2023-04-17T23:29:15.356Z,9.65
2023-04-17T23:31:42.788Z,13.95
2023-04-17T23:34:09.549Z,9.82
2023-04-17T23:36:36.646Z,10.15
2023-04-17T23:39:04.969Z,9.20
2023-04-17T23:41:33.725Z,10.48
2023-04-17T23:44:00.424Z,11.55
2023-04-17T23:46:27.264Z,13.13
2023-04-17T23:48:54.035Z,14.02
2023-04-17T23:51:20.896Z,10.52
2023-04-17T23:53:49.027Z,10.60
2023-04-17T23:56:16.197Z,10.70
2023-04-17T23:58:42.824Z,10.40
